PWSweather.com
Personal Weather Stations
Station Observations

ChardChardGB

Lat: 50.877408, Lon: -2.94964741

Elevation: 341

Station Type: WS3083

http://www.merriott-astro.co.uk/weather/index.htm

High Low Average
Temperature 59.7°F15.4°C -27.4°F-33.0°C 15.9°F-8.9°C
Dew Point 53.6°F12.0°C -97.1°F-71.7°C -67.2°F-55.1°C
Winds 121.0 mph 194.7 kmh 1.5 mph 2.4 kmh 62.0 mph NE99.8 kmh NE
Wind Gusts 123.0 mph197.9 kmh 1.6 mph2.6 kmh 98.0 mph157.7 kmh
Humidity 80% 1% 3%
Pressure 34.79 in1178.1 mb 0.00 in0.0 mb -
Precipitation 565.60 in14366.2 mm - -
Hour Temp Dew Point Humidity Winds Wind Gusts Pressure Precip Precip Rate Daily Precip Total
09:47 AM 20.3°F-6.5°C -58.7°F-50.4°C 1% 37.0 mph N59.5 kmh N 122.0 mph196.3 kmh 0.00 in0.0 mb 6.09 in154.7 mm 7.77 in197.4 mm 541.40 in13751.6 mm
09:55 AM -27.4°F-33.0°C -97.1°F-71.7°C 1% 33.1 mph N53.3 kmh N 122.0 mph196.3 kmh 0.00 in0.0 mb 5.95 in151.1 mm 0.00 in0.0 mm 541.30 in13749.0 mm
10:01 AM -27.4°F-33.0°C -97.1°F-71.7°C 1% 30.9 mph N49.7 kmh N 61.1 mph98.3 kmh 0.00 in0.0 mb 6.09 in154.7 mm 0.16 in4.1 mm 541.40 in13751.6 mm
10:08 AM -27.4°F-33.0°C -97.1°F-71.7°C 1% 40.3 mph N64.9 kmh N 61.1 mph98.3 kmh 0.00 in0.0 mb 6.05 in153.7 mm 0.00 in0.0 mm 541.30 in13749.0 mm
10:14 AM -27.4°F-33.0°C -97.1°F-71.7°C 1% 41.1 mph N66.1 kmh N 61.7 mph99.3 kmh 0.00 in0.0 mb 6.07 in154.2 mm 0.20 in5.1 mm 541.40 in13751.6 mm
10:16 AM -27.4°F-33.0°C -97.1°F-71.7°C 1% 30.9 mph N49.7 kmh N 61.7 mph99.3 kmh 0.00 in0.0 mb 5.95 in151.1 mm 0.00 in0.0 mm 541.30 in13749.0 mm
10:18 AM 17.1°F-8.3°C -97.1°F-71.7°C 1% 37.7 mph N60.7 kmh N 121.0 mph194.7 kmh 0.00 in0.0 mb 5.93 in150.6 mm 0.00 in0.0 mm 541.20 in13746.5 mm
10:22 AM 17.1°F-8.3°C -97.1°F-71.7°C 1% 39.5 mph N63.6 kmh N 121.0 mph194.7 kmh 0.00 in0.0 mb 5.95 in151.1 mm 0.30 in7.6 mm 541.30 in13749.0 mm
10:24 AM 17.1°F-8.3°C -68.1°F-55.6°C 1% 45.6 mph N73.4 kmh N 122.0 mph196.3 kmh 34.79 in1178.1 mb 6.09 in154.7 mm 4.20 in106.7 mm 541.40 in13751.6 mm
10:26 AM 17.1°F-8.3°C -68.1°F-55.6°C 1% 49.6 mph N79.8 kmh N 122.0 mph196.3 kmh 34.79 in1178.1 mb 6.07 in154.2 mm 0.00 in0.0 mm 541.40 in13751.6 mm
10:28 AM 17.1°F-8.3°C -68.1°F-55.6°C 1% 98.8 mph N159.0 kmh N 122.0 mph196.3 kmh 34.79 in1178.1 mb 6.09 in154.7 mm 0.60 in15.2 mm 541.40 in13751.6 mm
10:29 AM 17.1°F-8.3°C -68.1°F-55.6°C 1% 104.0 mph N167.4 kmh N 122.0 mph196.3 kmh 34.79 in1178.1 mb 6.07 in154.2 mm 0.00 in0.0 mm 541.40 in13751.6 mm
10:38 AM 17.1°F-8.3°C -68.1°F-55.6°C 1% 63.8 mph N102.7 kmh N 122.0 mph196.3 kmh 26.47 in896.4 mb 6.09 in154.7 mm 0.13 in3.3 mm 541.40 in13751.6 mm
10:46 AM 17.1°F-8.3°C -68.1°F-55.6°C 1% 121.0 mph N194.7 kmh N 121.0 mph194.7 kmh 26.47 in896.4 mb 6.09 in154.7 mm 0.00 in0.0 mm 541.40 in13751.6 mm
10:52 AM 18.9°F-7.3°C -68.1°F-55.6°C 1% 84.3 mph N135.7 kmh N 121.0 mph194.7 kmh 34.79 in1178.1 mb 12.24 in310.9 mm 61.50 in1562.1 mm 553.50 in14058.9 mm
10:58 AM 18.9°F-7.3°C -68.1°F-55.6°C 1% 119.0 mph N191.5 kmh N 119.0 mph191.5 kmh 34.79 in1178.1 mb 12.05 in306.1 mm 0.00 in0.0 mm 553.40 in14056.4 mm
11:00 AM 18.9°F-7.3°C -68.1°F-55.6°C 1% 49.0 mph N78.9 kmh N 122.0 mph196.3 kmh 34.79 in1178.1 mb 18.09 in459.5 mm 6.25 in158.8 mm 559.50 in14211.3 mm
11:01 AM 18.9°F-7.3°C -68.1°F-55.6°C 1% 49.3 mph N79.3 kmh N 122.0 mph196.3 kmh 34.79 in1178.1 mb 18.09 in459.5 mm 0.00 in0.0 mm 559.50 in14211.3 mm
11:03 AM 18.9°F-7.3°C -68.1°F-55.6°C 1% 45.8 mph N73.7 kmh N 122.0 mph196.3 kmh 34.79 in1178.1 mb 18.12 in460.2 mm 0.90 in22.9 mm 559.50 in14211.3 mm
11:05 AM 18.9°F-7.3°C -68.1°F-55.6°C 1% 45.9 mph N73.9 kmh N 122.0 mph196.3 kmh 34.79 in1178.1 mb 18.17 in461.5 mm 1.50 in38.1 mm 559.50 in14211.3 mm
11:07 AM 18.9°F-7.3°C -68.1°F-55.6°C 1% 46.1 mph N74.2 kmh N 122.0 mph196.3 kmh 34.79 in1178.1 mb 18.19 in462.0 mm 0.60 in15.2 mm 559.50 in14211.3 mm
11:10 AM 18.9°F-7.3°C -68.1°F-55.6°C 1% 46.2 mph N74.4 kmh N 121.0 mph194.7 kmh 34.79 in1178.1 mb 18.00 in457.2 mm 0.00 in0.0 mm 559.40 in14208.8 mm
11:14 AM 18.9°F-7.3°C -68.1°F-55.6°C 1% 96.4 mph N155.1 kmh N 121.0 mph194.7 kmh 34.79 in1178.1 mb 18.17 in461.5 mm 2.55 in64.8 mm 559.50 in14211.3 mm
11:19 AM 18.9°F-7.3°C -68.1°F-55.6°C 1% 106.0 mph N170.6 kmh N 121.0 mph194.7 kmh 34.79 in1178.1 mb 18.21 in462.5 mm 0.48 in12.2 mm 559.50 in14211.3 mm
11:25 AM 18.9°F-7.3°C -68.1°F-55.6°C 1% 106.0 mph N170.6 kmh N 121.0 mph194.7 kmh 34.79 in1178.1 mb 18.14 in460.8 mm 0.00 in0.0 mm 559.50 in14211.3 mm
11:30 AM 18.9°F-7.3°C -68.1°F-55.6°C 1% 2.2 mph N3.5 kmh N 2.2 mph3.5 kmh 34.79 in1178.1 mb 18.14 in460.8 mm 0.00 in0.0 mm 559.50 in14211.3 mm
11:34 AM 18.9°F-7.3°C -67.0°F-55.0°C 1% 2.2 mph N3.5 kmh N 2.2 mph3.5 kmh 34.79 in1178.1 mb 18.14 in460.8 mm 0.00 in0.0 mm 559.50 in14211.3 mm
11:41 AM 18.9°F-7.3°C -67.0°F-55.0°C 1% 119.0 mph N191.5 kmh N 119.0 mph191.5 kmh 34.79 in1178.1 mb 18.12 in460.2 mm 0.00 in0.0 mm 559.50 in14211.3 mm
11:43 AM 18.9°F-7.3°C -67.0°F-55.0°C 1% 79.9 mph N128.6 kmh N 119.0 mph191.5 kmh 34.79 in1178.1 mb 17.98 in456.7 mm 0.00 in0.0 mm 559.40 in14208.8 mm
11:46 AM 18.9°F-7.3°C -67.0°F-55.0°C 1% 60.1 mph N96.7 kmh N 119.0 mph191.5 kmh 34.79 in1178.1 mb 18.05 in458.5 mm 1.40 in35.6 mm 559.40 in14208.8 mm
11:52 AM 18.9°F-7.3°C -67.0°F-55.0°C 1% 60.5 mph N97.4 kmh N 120.0 mph193.1 kmh 34.79 in1178.1 mb 6.05 in153.7 mm 0.00 in0.0 mm 559.50 in14211.3 mm
11:57 AM 18.9°F-7.3°C -67.0°F-55.0°C 1% 61.1 mph N98.3 kmh N 61.7 mph99.3 kmh 34.79 in1178.1 mb 5.93 in150.6 mm 0.00 in0.0 mm 559.40 in14208.8 mm
11:59 AM 18.9°F-7.3°C -67.0°F-55.0°C 1% 61.1 mph N98.3 kmh N 61.7 mph99.3 kmh 34.79 in1178.1 mb 0.05 in1.3 mm 0.00 in0.0 mm 559.50 in14211.3 mm
12:01 PM 18.9°F-7.3°C -67.0°F-55.0°C 1% 73.1 mph N117.6 kmh N 121.0 mph194.7 kmh 34.79 in1178.1 mb 0.00 in0.0 mm 0.00 in0.0 mm 559.50 in14211.3 mm
12:03 PM 18.9°F-7.3°C -67.0°F-55.0°C 1% 61.4 mph N98.8 kmh N 121.0 mph194.7 kmh 34.79 in1178.1 mb 0.05 in1.3 mm 1.50 in38.1 mm 559.50 in14211.3 mm
12:07 PM 18.9°F-7.3°C -67.0°F-55.0°C 1% 45.2 mph N72.7 kmh N 121.0 mph194.7 kmh 34.79 in1178.1 mb 0.00 in0.0 mm 0.00 in0.0 mm 559.50 in14211.3 mm
12:11 PM 18.9°F-7.3°C -67.0°F-55.0°C 1% 44.0 mph N70.8 kmh N 121.0 mph194.7 kmh 34.79 in1178.1 mb 0.00 in0.0 mm 0.00 in0.0 mm 559.50 in14211.3 mm
12:16 PM 18.9°F-7.3°C -67.0°F-55.0°C 1% 96.8 mph N155.8 kmh N 121.0 mph194.7 kmh 34.79 in1178.1 mb 0.00 in0.0 mm 0.00 in0.0 mm 559.50 in14211.3 mm
12:20 PM 18.9°F-7.3°C -67.0°F-55.0°C 1% 96.8 mph N155.8 kmh N 121.0 mph194.7 kmh 34.79 in1178.1 mb 0.00 in0.0 mm 0.00 in0.0 mm 559.50 in14211.3 mm
12:22 PM 18.9°F-7.3°C -67.0°F-55.0°C 1% 101.0 mph N162.5 kmh N 121.0 mph194.7 kmh 34.79 in1178.1 mb 0.00 in0.0 mm 0.00 in0.0 mm 559.50 in14211.3 mm
12:24 PM 18.9°F-7.3°C -67.0°F-55.0°C 1% 105.0 mph N169.0 kmh N 121.0 mph194.7 kmh 34.79 in1178.1 mb 0.00 in0.0 mm 0.00 in0.0 mm 559.50 in14211.3 mm
12:28 PM 17.2°F-8.2°C -68.0°F-55.6°C 1% 44.0 mph N70.8 kmh N 121.0 mph194.7 kmh 34.79 in1178.1 mb 0.00 in0.0 mm 0.00 in0.0 mm 559.50 in14211.3 mm
12:31 PM 17.2°F-8.2°C -68.0°F-55.6°C 1% 41.5 mph N66.8 kmh N 119.0 mph191.5 kmh 34.79 in1178.1 mb 0.00 in0.0 mm 0.00 in0.0 mm 559.50 in14211.3 mm
12:36 PM 17.2°F-8.2°C -68.0°F-55.6°C 1% 61.5 mph N99.0 kmh N 61.7 mph99.3 kmh 34.79 in1178.1 mb 0.02 in0.5 mm 0.24 in6.1 mm 559.50 in14211.3 mm
12:42 PM 17.2°F-8.2°C -68.0°F-55.6°C 1% 31.7 mph N51.0 kmh N 61.7 mph99.3 kmh 34.79 in1178.1 mb 0.17 in4.3 mm 1.50 in38.1 mm 559.50 in14211.3 mm
12:47 PM 17.2°F-8.2°C -68.0°F-55.6°C 1% 31.0 mph N49.9 kmh N 60.4 mph97.2 kmh 34.79 in1178.1 mb 0.00 in0.0 mm 0.00 in0.0 mm 559.40 in14208.8 mm
12:53 PM 17.2°F-8.2°C -68.0°F-55.6°C 1% 59.9 mph N96.4 kmh N 60.4 mph97.2 kmh 34.79 in1178.1 mb 0.09 in2.3 mm 0.90 in22.9 mm 559.50 in14211.3 mm
01:03 PM 17.2°F-8.2°C -68.0°F-55.6°C 1% 120.0 mph N193.1 kmh N 120.0 mph193.1 kmh 34.79 in1178.1 mb 0.00 in0.0 mm 0.00 in0.0 mm 559.50 in14211.3 mm
01:13 PM 17.2°F-8.2°C -68.0°F-55.6°C 1% 61.1 mph N98.3 kmh N 61.1 mph98.3 kmh 34.79 in1178.1 mb 2.93 in74.4 mm 17.58 in446.5 mm 562.40 in14285.0 mm
01:24 PM 17.2°F-8.2°C -68.0°F-55.6°C 1% 121.0 mph N194.7 kmh N 121.0 mph194.7 kmh 34.79 in1178.1 mb 2.98 in75.7 mm 0.27 in6.9 mm 562.50 in14287.5 mm
01:34 PM 17.2°F-8.2°C -68.0°F-55.6°C 1% 61.1 mph N98.3 kmh N 61.1 mph98.3 kmh 34.79 in1178.1 mb 2.95 in74.9 mm 0.00 in0.0 mm 562.50 in14287.5 mm
01:42 PM 17.2°F-8.2°C -68.0°F-55.6°C 1% 60.3 mph N97.0 kmh N 61.1 mph98.3 kmh 34.79 in1178.1 mb 3.09 in78.5 mm 1.05 in26.7 mm 562.50 in14287.5 mm
01:49 PM 17.2°F-8.2°C -68.0°F-55.6°C 1% 60.3 mph N97.0 kmh N 61.1 mph98.3 kmh 34.79 in1178.1 mb 3.02 in76.7 mm 0.00 in0.0 mm 562.50 in14287.5 mm
01:54 PM 17.2°F-8.2°C -68.0°F-55.6°C 1% 60.3 mph N97.0 kmh N 61.1 mph98.3 kmh 34.79 in1178.1 mb 2.91 in73.9 mm 0.00 in0.0 mm 562.40 in14285.0 mm
01:59 PM 17.2°F-8.2°C -68.0°F-55.6°C 1% 61.1 mph N98.3 kmh N 61.1 mph98.3 kmh 34.79 in1178.1 mb 3.00 in76.2 mm 1.08 in27.4 mm 562.50 in14287.5 mm
02:02 PM 17.2°F-8.2°C -68.0°F-55.6°C 1% 60.8 mph N97.8 kmh N 61.1 mph98.3 kmh 34.79 in1178.1 mb 3.00 in76.2 mm 0.00 in0.0 mm 562.50 in14287.5 mm
02:03 PM 17.2°F-8.2°C -68.0°F-55.6°C 1% 54.6 mph N87.9 kmh N 120.0 mph193.1 kmh 26.47 in896.4 mb 0.09 in2.3 mm 0.00 in0.0 mm 562.50 in14287.5 mm
02:04 PM 17.2°F-8.2°C -68.0°F-55.6°C 1% 54.8 mph N88.2 kmh N 120.0 mph193.1 kmh 26.47 in896.4 mb 0.12 in3.0 mm 1.80 in45.7 mm 562.50 in14287.5 mm
02:05 PM 17.2°F-8.2°C -68.0°F-55.6°C 1% 56.9 mph N91.6 kmh N 120.0 mph193.1 kmh 26.47 in896.4 mb 0.07 in1.8 mm 0.00 in0.0 mm 562.50 in14287.5 mm
02:07 PM 17.2°F-8.2°C -68.0°F-55.6°C 1% 58.7 mph N94.5 kmh N 120.0 mph193.1 kmh 26.47 in896.4 mb 0.09 in2.3 mm 0.60 in15.2 mm 562.50 in14287.5 mm
02:10 PM 17.2°F-8.2°C -68.0°F-55.6°C 1% 60.6 mph N97.5 kmh N 121.0 mph194.7 kmh 26.47 in896.4 mb 0.09 in2.3 mm 0.00 in0.0 mm 562.50 in14287.5 mm
02:12 PM 17.2°F-8.2°C -68.0°F-55.6°C 1% 60.6 mph N97.5 kmh N 121.0 mph194.7 kmh 26.47 in896.4 mb 0.12 in3.0 mm 0.90 in22.9 mm 562.50 in14287.5 mm
02:14 PM 17.2°F-8.2°C -68.0°F-55.6°C 1% 96.5 mph N155.3 kmh N 121.0 mph194.7 kmh 26.47 in896.4 mb 0.07 in1.8 mm 0.00 in0.0 mm 562.50 in14287.5 mm
02:17 PM 17.2°F-8.2°C -68.0°F-55.6°C 1% 91.0 mph N146.5 kmh N 121.0 mph194.7 kmh 26.47 in896.4 mb 0.00 in0.0 mm 0.00 in0.0 mm 562.50 in14287.5 mm
02:19 PM 17.2°F-8.2°C -68.0°F-55.6°C 1% 91.0 mph N146.5 kmh N 121.0 mph194.7 kmh 26.47 in896.4 mb 3.12 in79.2 mm 93.60 in2377.4 mm 565.60 in14366.2 mm
02:24 PM 17.2°F-8.2°C -68.0°F-55.6°C 1% 61.3 mph N98.7 kmh N 61.7 mph99.3 kmh 26.47 in896.4 mb 3.05 in77.5 mm 0.00 in0.0 mm 565.50 in14363.7 mm
02:26 PM 17.2°F-8.2°C -68.0°F-55.6°C 1% 61.3 mph N98.7 kmh N 61.7 mph99.3 kmh 26.47 in896.4 mb 3.05 in77.5 mm 0.00 in0.0 mm 565.50 in14363.7 mm
02:27 PM 20.5°F-6.4°C -66.0°F-54.4°C 1% 41.0 mph N66.0 kmh N 123.0 mph197.9 kmh 32.52 in1101.3 mb 0.00 in0.0 mm 0.00 in0.0 mm 36.38 in924.1 mm
09:14 PM 53.1°F11.7°C 46.4°F8.0°C 78% 1.5 mph W2.4 kmh W 1.6 mph2.6 kmh 29.09 in985.1 mb 0.00 in0.0 mm 0.00 in0.0 mm 12.26 in311.4 mm
09:20 PM 59.7°F15.4°C 53.6°F12.0°C 80% 1.5 mph WSW2.4 kmh WSW 1.6 mph2.6 kmh 29.78 in1008.5 mb 0.00 in0.0 mm 0.00 in0.0 mm 0.02 in0.5 mm